createdAt,value
2022-11-17T00:00:26.462Z,22.33
2022-11-17T00:03:29.219Z,23.93
2022-11-17T00:06:31.719Z,22.10
2022-11-17T00:09:34.477Z,22.27
2022-11-17T00:12:55.554Z,18.73
2022-11-17T00:15:58.229Z,22.08
2022-11-17T00:19:19.775Z,18.93
2022-11-17T00:22:22.821Z,16.33
2022-11-17T00:25:25.350Z,18.48
2022-11-17T00:28:28.095Z,21.15
2022-11-17T00:31:51.961Z,21.95
2022-11-17T00:34:54.772Z,17.77
2022-11-17T00:38:15.535Z,18.37
2022-11-17T00:41:18.363Z,20.20
2022-11-17T00:44:21.139Z,19.30
2022-11-17T00:47:23.980Z,15.70
2022-11-17T00:50:26.771Z,20.67
2022-11-17T00:53:29.592Z,18.30
2022-11-17T00:56:32.150Z,19.65
2022-11-17T00:59:35.013Z,18.70
2022-11-17T01:02:37.687Z,19.35
2022-11-17T01:05:40.705Z,20.00
2022-11-17T01:08:43.518Z,16.67
2022-11-17T01:11:47.123Z,16.35
2022-11-17T01:14:49.755Z,19.08
2022-11-17T01:17:52.483Z,19.20
2022-11-17T01:20:55.030Z,15.17
2022-11-17T01:23:59.376Z,19.50
2022-11-17T01:27:01.874Z,14.38
2022-11-17T01:30:05.108Z,20.20
2022-11-17T01:33:07.639Z,14.32
2022-11-17T01:36:17.711Z,12.73
2022-11-17T01:39:20.629Z,10.07
2022-11-17T01:42:25.851Z,16.40
2022-11-17T01:45:28.420Z,10.40
2022-11-17T01:48:31.679Z,13.82
2022-11-17T01:51:35.892Z,16.77
2022-11-17T01:54:40.687Z,16.07
2022-11-17T01:57:50.323Z,19.33
2022-11-17T02:00:54.456Z,16.15
2022-11-17T02:03:57.467Z,13.00
2022-11-17T02:07:13.564Z,13.83
2022-11-17T02:10:16.285Z,13.13
2022-11-17T02:13:20.944Z,14.35
2022-11-17T02:16:23.523Z,14.35
2022-11-17T02:19:27.863Z,16.67
2022-11-17T02:22:47.453Z,15.57
2022-11-17T02:25:59.376Z,13.43
2022-11-17T02:29:36.133Z,16.33
2022-11-17T02:32:56.940Z,13.48
2022-11-17T02:36:02.195Z,14.95
2022-11-17T02:39:20.454Z,15.57
2022-11-17T02:42:48.986Z,13.10
2022-11-17T02:46:09.228Z,16.05
2022-11-17T02:49:35.223Z,15.88
2022-11-17T02:52:37.953Z,13.55
2022-11-17T02:55:40.514Z,13.10
2022-11-17T02:58:43.315Z,13.57
2022-11-17T03:02:03.902Z,12.30
2022-11-17T03:05:10.386Z,14.45
2022-11-17T03:08:21.920Z,13.85
2022-11-17T03:11:32.207Z,15.60
2022-11-17T03:14:56.432Z,14.23
2022-11-17T03:18:04.372Z,13.57
2022-11-17T03:21:26.187Z,16.02
2022-11-17T03:24:39.966Z,13.30
2022-11-17T03:27:47.765Z,11.10
2022-11-17T03:30:51.703Z,12.37
2022-11-17T03:33:54.904Z,16.80
2022-11-17T03:37:01.440Z,17.45
2022-11-17T03:40:15.054Z,18.48
2022-11-17T03:43:18.809Z,16.73
2022-11-17T03:46:22.030Z,17.03
2022-11-17T03:49:27.534Z,13.43
2022-11-17T03:52:30.516Z,17.90
2022-11-17T03:55:45.415Z,10.35
2022-11-17T03:59:01.797Z,12.47
2022-11-17T04:02:05.410Z,16.10
2022-11-17T04:05:09.135Z,13.68
2022-11-17T04:08:11.646Z,15.63
2022-11-17T04:11:32.629Z,15.48
2022-11-17T04:14:53.798Z,14.37
2022-11-17T04:17:56.663Z,12.37
2022-11-17T04:20:59.227Z,17.45
2022-11-17T04:24:02.080Z,14.02
2022-11-17T04:27:23.184Z,13.57
2022-11-17T04:30:25.911Z,13.87
2022-11-17T04:33:28.376Z,13.13
2022-11-17T04:36:40.792Z,11.27
2022-11-17T04:39:45.916Z,14.60
2022-11-17T04:42:50.628Z,12.48
2022-11-17T04:45:58.689Z,9.30
2022-11-17T04:49:02.389Z,17.47
2022-11-17T04:52:05.102Z,15.63
2022-11-17T04:55:08.228Z,15.38
2022-11-17T04:58:11.074Z,14.30
2022-11-17T05:01:14.156Z,15.93
2022-11-17T05:04:36.582Z,14.63
2022-11-17T05:07:39.371Z,17.08
2022-11-17T05:11:00.434Z,13.93
2022-11-17T05:14:03.389Z,14.43
2022-11-17T05:17:10.413Z,14.40
2022-11-17T05:20:16.082Z,15.23
2022-11-17T05:23:37.711Z,13.38
2022-11-17T05:26:42.026Z,13.57
2022-11-17T05:29:44.590Z,13.55
2022-11-17T05:32:47.482Z,13.87
2022-11-17T05:35:49.938Z,14.53
2022-11-17T05:38:52.962Z,14.05
2022-11-17T05:41:55.469Z,13.13
2022-11-17T05:44:58.220Z,14.00
2022-11-17T05:48:00.730Z,13.40
2022-11-17T05:51:03.483Z,15.83
2022-11-17T05:54:05.960Z,12.48
2022-11-17T05:57:23.785Z,16.98
2022-11-17T06:00:26.315Z,18.17
2022-11-17T06:03:33.403Z,12.50
2022-11-17T06:06:37.111Z,13.43
2022-11-17T06:09:41.867Z,13.45
2022-11-17T06:12:44.329Z,13.68
2022-11-17T06:15:47.089Z,16.83
2022-11-17T06:18:55.289Z,14.57
2022-11-17T06:22:11.654Z,14.57
2022-11-17T06:25:15.085Z,16.17
2022-11-17T06:28:20.299Z,14.05
2022-11-17T06:31:23.518Z,13.48
2022-11-17T06:34:27.461Z,13.63
2022-11-17T06:37:29.956Z,12.97
2022-11-17T06:40:32.751Z,13.45
2022-11-17T06:43:35.567Z,15.20
2022-11-17T06:46:38.537Z,19.73
2022-11-17T06:49:41.045Z,21.70
2022-11-17T06:52:43.959Z,14.70
2022-11-17T06:55:50.168Z,14.43
2022-11-17T06:58:54.240Z,15.30
2022-11-17T07:01:56.836Z,14.68
2022-11-17T07:04:59.702Z,14.83
2022-11-17T07:08:04.204Z,15.00
2022-11-17T07:11:12.952Z,16.60
2022-11-17T07:14:15.598Z,15.75
2022-11-17T07:17:18.428Z,14.27
2022-11-17T07:20:21.188Z,22.10
2022-11-17T07:23:24.006Z,24.03
2022-11-17T07:26:26.739Z,20.15
2022-11-17T07:29:30.867Z,19.17
2022-11-17T07:32:34.317Z,17.73
2022-11-17T07:35:37.404Z,15.57
2022-11-17T07:38:40.871Z,15.47
2022-11-17T07:41:43.795Z,13.18
2022-11-17T07:44:46.290Z,15.98
2022-11-17T07:47:56.526Z,13.85
2022-11-17T07:50:59.793Z,12.23
2022-11-17T07:54:02.563Z,14.17
2022-11-17T07:57:05.149Z,14.87
2022-11-17T08:00:08.880Z,12.65
2022-11-17T08:03:14.519Z,11.50
2022-11-17T08:06:17.505Z,13.87
2022-11-17T08:09:20.285Z,14.63
2022-11-17T08:12:23.705Z,10.07
2022-11-17T08:15:26.560Z,11.93
2022-11-17T08:18:30.200Z,11.80
2022-11-17T08:21:32.714Z,12.43
2022-11-17T08:24:35.619Z,12.83
2022-11-17T08:27:38.195Z,14.35
2022-11-17T08:30:41.155Z,13.98
2022-11-17T08:33:43.710Z,11.40
2022-11-17T08:36:46.638Z,13.07
2022-11-17T08:39:49.595Z,11.73
2022-11-17T08:43:01.187Z,11.30
2022-11-17T08:46:04.548Z,10.15
2022-11-17T08:49:07.472Z,8.25
2022-11-17T08:52:10.050Z,11.40
2022-11-17T08:55:12.978Z,8.67
2022-11-17T08:58:15.838Z,11.12
2022-11-17T09:01:18.937Z,13.60
2022-11-17T09:04:21.565Z,13.68
2022-11-17T09:07:24.905Z,11.63
2022-11-17T09:10:27.684Z,13.10
2022-11-17T09:13:31.541Z,12.07
2022-11-17T09:16:34.985Z,9.23
2022-11-17T09:19:38.284Z,9.18
2022-11-17T09:22:41.433Z,10.47
2022-11-17T09:25:44.340Z,10.97
2022-11-17T09:28:47.223Z,10.50
2022-11-17T09:31:51.281Z,10.48
2022-11-17T09:34:53.986Z,10.55
2022-11-17T09:38:01.179Z,9.77
2022-11-17T09:41:18.463Z,11.53
2022-11-17T09:44:46.710Z,11.45
2022-11-17T09:48:39.415Z,10.63
2022-11-17T09:51:39.086Z,10.88
2022-11-17T09:55:08.001Z,11.90
2022-11-17T09:58:34.690Z,9.40
2022-11-17T10:01:37.715Z,7.75
2022-11-17T10:04:40.727Z,8.82
2022-11-17T10:07:48.472Z,8.98
2022-11-17T10:10:51.963Z,8.43
2022-11-17T10:13:54.642Z,8.70
2022-11-17T10:16:58.693Z,8.80
2022-11-17T10:20:01.526Z,8.93
2022-11-17T10:23:04.876Z,8.43
2022-11-17T10:26:10.084Z,8.53
2022-11-17T10:29:14.543Z,8.00
2022-11-17T10:32:17.140Z,8.85
2022-11-17T10:35:22.940Z,9.18
2022-11-17T10:38:29.136Z,10.35
2022-11-17T10:41:41.678Z,9.67
2022-11-17T10:44:46.323Z,8.13
2022-11-17T10:47:49.512Z,7.37
2022-11-17T10:50:58.166Z,7.93
2022-11-17T10:54:02.579Z,8.40
2022-11-17T10:57:08.364Z,17.47
2022-11-17T11:00:32.142Z,7.77
2022-11-17T11:03:35.875Z,7.10
2022-11-17T11:06:38.971Z,8.38
2022-11-17T11:10:02.955Z,11.93
2022-11-17T11:13:18.113Z,10.33
2022-11-17T11:16:20.694Z,9.57
2022-11-17T11:19:23.867Z,8.40
2022-11-17T11:22:54.655Z,9.10
2022-11-17T11:26:10.505Z,6.20
2022-11-17T11:29:22.072Z,9.10
2022-11-17T11:32:32.123Z,7.30
2022-11-17T11:35:56.114Z,7.47
2022-11-17T11:39:23.330Z,8.80
2022-11-17T11:42:50.291Z,9.25
2022-11-17T11:46:17.786Z,10.23
2022-11-17T11:49:29.534Z,48.23
2022-11-17T11:52:35.968Z,20.10
2022-11-17T11:55:41.253Z,13.70
2022-11-17T11:58:48.204Z,12.98
2022-11-17T12:02:14.677Z,10.43
2022-11-17T12:05:34.602Z,10.27
2022-11-17T12:08:42.856Z,7.40
2022-11-17T12:12:02.549Z,7.00
2022-11-17T12:15:15.681Z,6.57
2022-11-17T12:18:18.622Z,8.50
2022-11-17T12:21:23.802Z,7.90
2022-11-17T12:24:40.240Z,7.87
2022-11-17T12:27:52.541Z,8.15
2022-11-17T12:31:10.092Z,7.70
2022-11-17T12:34:19.046Z,7.67
2022-11-17T12:37:23.186Z,8.93
2022-11-17T12:40:48.846Z,9.40
2022-11-17T12:43:51.740Z,7.10
2022-11-17T12:46:55.758Z,9.27
2022-11-17T12:50:20.278Z,8.57
2022-11-17T12:53:39.236Z,10.10
2022-11-17T12:57:09.705Z,11.32
2022-11-17T13:00:19.418Z,9.27
2022-11-17T13:03:28.154Z,11.52
2022-11-17T13:06:35.928Z,6.50
2022-11-17T13:09:39.373Z,7.07
2022-11-17T13:12:42.061Z,7.75
2022-11-17T13:15:45.497Z,6.47
2022-11-17T13:18:49.429Z,6.82
2022-11-17T13:22:01.848Z,9.03
2022-11-17T13:25:23.311Z,10.93
2022-11-17T13:28:28.689Z,12.85
2022-11-17T13:31:31.401Z,7.57
2022-11-17T13:34:34.384Z,10.77
2022-11-17T13:37:36.958Z,10.57
2022-11-17T13:40:41.936Z,9.90
2022-11-17T13:43:46.246Z,6.90
2022-11-17T13:46:49.235Z,8.73
2022-11-17T13:49:52.129Z,8.77
2022-11-17T13:53:02.451Z,13.37
2022-11-17T13:56:21.285Z,9.27
2022-11-17T13:59:28.297Z,13.57
2022-11-17T14:02:30.973Z,12.15
2022-11-17T14:05:34.146Z,13.52
2022-11-17T14:08:38.378Z,11.90
2022-11-17T14:11:41.916Z,12.53
2022-11-17T14:14:45.392Z,13.57
2022-11-17T14:17:50.325Z,10.73
2022-11-17T14:21:13.910Z,19.15
2022-11-17T14:24:17.156Z,17.67
2022-11-17T14:27:29.746Z,12.63
2022-11-17T14:30:32.662Z,12.27
2022-11-17T14:33:35.213Z,13.05
2022-11-17T14:36:38.792Z,15.18
2022-11-17T14:39:41.459Z,14.63
2022-11-17T14:42:44.655Z,13.20
2022-11-17T14:45:47.462Z,13.40
2022-11-17T14:48:51.201Z,13.95
2022-11-17T14:51:55.462Z,17.25
2022-11-17T14:54:59.196Z,14.90
2022-11-17T14:58:01.767Z,16.30
2022-11-17T15:01:09.808Z,16.25
2022-11-17T15:04:35.162Z,21.27
2022-11-17T15:07:37.577Z,23.42
2022-11-17T15:10:44.897Z,34.60
2022-11-17T15:13:47.906Z,32.07
2022-11-17T15:16:50.570Z,38.28
2022-11-17T15:19:55.253Z,36.88
2022-11-17T15:23:02.891Z,26.58
2022-11-17T15:26:08.243Z,28.87
2022-11-17T15:29:17.350Z,45.60
2022-11-17T15:32:20.483Z,69.40
2022-11-17T15:35:23.190Z,47.67
2022-11-17T15:38:26.107Z,44.30
2022-11-17T15:41:32.874Z,51.30
2022-11-17T15:44:36.055Z,52.00
2022-11-17T15:47:38.552Z,89.35
2022-11-17T15:50:41.470Z,100.50
2022-11-17T15:53:45.284Z,97.37
2022-11-17T15:56:52.041Z,70.20
2022-11-17T15:59:54.631Z,54.53
2022-11-17T16:02:58.721Z,42.67
2022-11-17T16:06:01.845Z,47.33
2022-11-17T16:09:06.600Z,33.42
2022-11-17T16:12:09.498Z,43.77
2022-11-17T16:15:12.107Z,40.00
2022-11-17T16:18:15.017Z,48.00
2022-11-17T16:21:17.819Z,50.38
2022-11-17T16:24:20.609Z,41.70
2022-11-17T16:27:23.144Z,38.53
2022-11-17T16:30:34.216Z,36.93
2022-11-17T16:33:37.984Z,62.70
2022-11-17T16:36:42.101Z,66.15
2022-11-17T16:39:44.715Z,56.67
2022-11-17T16:42:47.643Z,45.90
2022-11-17T16:45:50.115Z,39.80
2022-11-17T16:48:53.408Z,38.00
2022-11-17T16:51:56.047Z,30.08
2022-11-17T16:55:04.379Z,27.73
2022-11-17T16:58:08.052Z,27.90
2022-11-17T17:01:16.156Z,27.23
2022-11-17T17:04:19.587Z,19.33
2022-11-17T17:07:22.658Z,14.80
2022-11-17T17:10:25.715Z,14.57
2022-11-17T17:13:28.532Z,17.83
2022-11-17T17:16:32.935Z,15.37
2022-11-17T17:19:35.892Z,19.77
2022-11-17T17:22:38.799Z,26.90
2022-11-17T17:25:41.546Z,26.55
2022-11-17T17:28:48.788Z,20.57
2022-11-17T17:31:51.783Z,18.97
2022-11-17T17:34:54.247Z,17.92
2022-11-17T17:37:57.174Z,15.95
2022-11-17T17:41:13.444Z,17.62
2022-11-17T17:44:18.256Z,17.67
2022-11-17T17:47:20.790Z,35.87
2022-11-17T17:50:28.781Z,28.95
2022-11-17T17:53:31.523Z,26.73
2022-11-17T17:56:34.891Z,24.70
2022-11-17T17:59:37.819Z,33.03
2022-11-17T18:02:40.865Z,37.60
2022-11-17T18:05:43.745Z,43.78
2022-11-17T18:08:47.242Z,35.42
2022-11-17T18:11:51.017Z,44.42
2022-11-17T18:14:54.056Z,46.80
2022-11-17T18:17:56.875Z,41.50
2022-11-17T18:21:14.309Z,47.05
2022-11-17T18:24:18.435Z,47.30
2022-11-17T18:27:21.165Z,44.13
2022-11-17T18:30:24.384Z,38.27
2022-11-17T18:33:27.084Z,38.03
2022-11-17T18:36:30.889Z,35.83
2022-11-17T18:39:33.853Z,43.67
2022-11-17T18:42:36.903Z,44.85
2022-11-17T18:45:39.681Z,50.27
2022-11-17T18:48:44.371Z,53.83
2022-11-17T18:51:47.259Z,76.85
2022-11-17T18:54:50.537Z,47.75
2022-11-17T18:57:53.347Z,42.78
2022-11-17T19:00:57.361Z,42.60
2022-11-17T19:04:01.125Z,37.73
2022-11-17T19:07:04.251Z,37.67
2022-11-17T19:10:07.475Z,42.17
2022-11-17T19:13:10.613Z,35.80
2022-11-17T19:16:23.622Z,37.03
2022-11-17T19:19:26.640Z,33.97
2022-11-17T19:22:29.799Z,42.38
2022-11-17T19:25:32.927Z,35.47
2022-11-17T19:28:36.404Z,35.35
2022-11-17T19:31:39.435Z,39.27
2022-11-17T19:34:42.206Z,39.30
2022-11-17T19:37:45.542Z,36.15
2022-11-17T19:40:48.294Z,56.35
2022-11-17T19:43:55.525Z,43.78
2022-11-17T19:46:58.393Z,57.47
2022-11-17T19:50:01.527Z,71.20
2022-11-17T19:53:04.472Z,91.87
2022-11-17T19:56:08.128Z,88.70
2022-11-17T19:59:16.155Z,81.85
2022-11-17T20:02:19.766Z,77.00
2022-11-17T20:05:23.056Z,78.10
2022-11-17T20:08:26.115Z,57.30
2022-11-17T20:11:29.292Z,40.08
2022-11-17T20:14:32.500Z,40.58
2022-11-17T20:17:35.561Z,38.47
2022-11-17T20:20:38.242Z,36.50
2022-11-17T20:23:41.343Z,42.75
2022-11-17T20:26:44.374Z,39.65
2022-11-17T20:29:47.789Z,42.38
2022-11-17T20:32:50.610Z,37.70
2022-11-17T20:35:53.663Z,30.63
2022-11-17T20:38:58.981Z,35.78
2022-11-17T20:42:01.951Z,35.03
2022-11-17T20:45:04.594Z,38.92
2022-11-17T20:48:07.706Z,35.33
2022-11-17T20:51:12.709Z,73.70
2022-11-17T20:54:15.870Z,58.90
2022-11-17T20:57:18.984Z,61.05
2022-11-17T21:00:22.323Z,59.63
2022-11-17T21:03:26.757Z,62.00
2022-11-17T21:06:29.684Z,65.90
2022-11-17T21:09:32.212Z,68.35
2022-11-17T21:12:35.024Z,64.68
2022-11-17T21:15:37.561Z,62.08
2022-11-17T21:18:46.022Z,69.63
2022-11-17T21:21:50.479Z,69.57
2022-11-17T21:24:53.242Z,70.60
2022-11-17T21:27:56.682Z,64.97
2022-11-17T21:31:23.644Z,52.17
2022-11-17T21:34:26.304Z,56.27
2022-11-17T21:37:29.228Z,48.10
2022-11-17T21:40:31.783Z,59.40
2022-11-17T21:43:39.596Z,54.05
2022-11-17T21:46:42.116Z,47.78
2022-11-17T21:49:44.900Z,45.30
2022-11-17T21:52:47.403Z,32.00
2022-11-17T21:55:50.192Z,40.97
2022-11-17T21:58:56.374Z,56.35
2022-11-17T22:01:59.146Z,44.58
2022-11-17T22:05:02.052Z,42.17
2022-11-17T22:08:04.636Z,36.23
2022-11-17T22:11:12.475Z,34.63
2022-11-17T22:14:18.178Z,39.33
2022-11-17T22:17:20.962Z,39.90
2022-11-17T22:20:23.594Z,47.37
2022-11-17T22:23:28.227Z,44.33
2022-11-17T22:26:31.769Z,42.10
2022-11-17T22:29:34.653Z,39.20
2022-11-17T22:32:40.020Z,37.38
2022-11-17T22:35:45.499Z,35.13
2022-11-17T22:38:52.129Z,41.37
2022-11-17T22:41:54.929Z,44.30
2022-11-17T22:44:57.483Z,45.58
2022-11-17T22:48:01.748Z,42.38
2022-11-17T22:51:05.430Z,39.27
2022-11-17T22:54:08.692Z,40.00
2022-11-17T22:57:11.187Z,40.97
2022-11-17T23:00:15.114Z,37.58
2022-11-17T23:03:17.600Z,47.45
2022-11-17T23:06:22.528Z,50.50
2022-11-17T23:09:25.084Z,47.80
2022-11-17T23:12:27.854Z,46.13
2022-11-17T23:15:32.101Z,45.95
2022-11-17T23:18:36.639Z,38.20
2022-11-17T23:21:39.458Z,38.37
2022-11-17T23:24:42.200Z,34.87
2022-11-17T23:27:44.678Z,38.50
2022-11-17T23:30:47.523Z,34.47
2022-11-17T23:33:50.376Z,35.97
2022-11-17T23:36:54.202Z,32.87
2022-11-17T23:39:56.778Z,31.87
2022-11-17T23:42:59.567Z,40.90
2022-11-17T23:46:07.310Z,32.15
2022-11-17T23:49:10.094Z,35.00
2022-11-17T23:52:12.562Z,31.23
2022-11-17T23:55:15.380Z,31.80
2022-11-17T23:58:17.989Z,30.20
